Time;durP1;ratioP1;P1;durP2;ratioP2;P2;SDS_P1;SDS_P2;PMS_P1;PMS_P2;Temp;Humidity;BMP_temperature;BMP_pressure;BME280_temperature;BME280_humidity;BME280_pressure;Samples;Min_cycle;Max_cycle;Signal;HPM_P1;HPM_P2
2021/03/06 00:00:16;;;;;;;;;;;;;;;;;;20867793;28;1248;-35
2021/03/06 00:10:37;;;;;;;;;;;;;;;;;;20934640;28;1987;-35
2021/03/06 00:21:11;;;;;;;;;;;;;;;;;;20949757;28;1144;-35
2021/03/06 00:31:41;;;;;;;;;;;;;;;;;;20965638;28;1910;-35
2021/03/06 00:42:16;;;;;;;;;;;;;;;;;;20966775;28;1074;-35
2021/03/06 00:52:37;;;;;;;;;;;;;;;;;;20963226;28;1902;-35
2021/03/06 01:02:58;;;;;;;;;;;;;;;;;;20978195;28;1410;-34
2021/03/06 01:13:33;;;;;;;;;;;;;;;;;;20818321;28;1906;-35
2021/03/06 01:23:53;;;;;;;;;;;;;;;;;;20824186;28;1065;-35
2021/03/06 01:34:14;;;;;;;;;;;;;;;;;;20810802;28;1911;-35
2021/03/06 01:44:50;;;;;;;;;;;;;;;;;;20820771;28;1031;-35
2021/03/06 01:55:27;;;;;;;;;;;;;;;;;;20791605;28;1989;-35
2021/03/06 02:06:02;;;;;;;;;;;;;;;;;;20818359;28;1258;-35
2021/03/06 02:16:43;;;;;;;;;;;;;;;;;;20957653;28;1997;-35
2021/03/06 02:27:21;;;;;;;;;;;;;;;;;;20954441;28;1098;-35
2021/03/06 02:38:01;;;;;;;;;;;;;;;;;;20969956;28;1906;-35
2021/03/06 02:48:21;;;;;;;;;;;;;;;;;;20954366;28;1062;-35
2021/03/06 02:59:05;;;;;;;;;;;;;;;;;;20968839;28;1220;-35
2021/03/06 03:09:27;;;;;;;;;;;;;;;;;;20927923;28;1985;-35
2021/03/06 03:19:50;;;;;;;;;;;;;;;;;;20885516;28;1487;-35
2021/03/06 03:30:11;;;;;;;;;;;;;;;;;;20869087;28;1906;-34
2021/03/06 03:40:46;;;;;;;;;;;;;;;;;;20868925;28;1080;-35
2021/03/06 03:51:21;;;;;;;;;;;;;;;;;;20883440;28;1977;-35
2021/03/06 04:01:56;;;;;;;;;;;;;;;;;;20917301;28;1239;-34
2021/03/06 04:12:30;;;;;;;;;;;;;;;;;;20912554;28;1898;-34
2021/03/06 04:22:51;;;;;;;;;;;;;;;;;;20882976;28;1078;-35
2021/03/06 04:33:26;;;;;;;;;;;;;;;;;;20895835;28;1902;-34
2021/03/06 04:44:00;;;;;;;;;;;;;;;;;;20897702;28;1073;-35
2021/03/06 04:54:35;;;;;;;;;;;;;;;;;;20896977;28;1985;-35
2021/03/06 05:05:00;;;;;;;;;;;;;;;;;;20884928;28;1360;-35
2021/03/06 05:15:36;;;;;;;;;;;;;;;;;;20961986;28;2015;-35
2021/03/06 05:25:56;;;;;;;;;;;;;;;;;;20976929;28;1111;-35
2021/03/06 05:36:31;;;;;;;;;;;;;;;;;;20959751;28;1971;-35
2021/03/06 05:46:52;;;;;;;;;;;;;;;;;;20959608;28;1230;-35
2021/03/06 05:57:26;;;;;;;;;;;;;;;;;;20973844;28;1983;-34
2021/03/06 06:07:47;;;;;;;;;;;;;;;;;;20945498;28;1297;-34
2021/03/06 06:18:22;;;;;;;;;;;;;;;;;;20876130;28;1918;-34
2021/03/06 06:28:57;;;;;;;;;;;;;;;;;;20886245;28;1231;-35
2021/03/06 06:39:26;;;;;;;;;;;;;;;;;;20872914;28;1046;-34
2021/03/06 06:49:47;;;;;;;;;;;;;;;;;;20887032;28;1974;-34
2021/03/06 07:00:09;;;;;;;;;;;;;;;;;;20529673;28;9999767;-34
2021/03/06 07:10:44;;;;;;;;;;;;;;;;;;20907798;28;1894;-43
2021/03/06 07:21:04;;;;;;;;;;;;;;;;;;20954168;28;1261;-43
2021/03/06 07:31:25;;;;;;;;;;;;;;;;;;20942545;28;1910;-43
2021/03/06 07:41:48;;;;;;;;;;;;;;;;;;20964187;28;1130;-43
2021/03/06 07:52:08;;;;;;;;;;;;;;;;;;20945484;28;1930;-42
2021/03/06 08:02:44;;;;;;;;;;;;;;;;;;20935150;28;1352;-41
2021/03/06 08:13:08;;;;;;;;;;;;;;;;;;20807849;28;1902;-42
2021/03/06 08:23:30;;;;;;;;;;;;;;;;;;20766066;28;1187;-43
2021/03/06 08:34:00;;;;;;;;;;;;;;;;;;20795169;28;1914;-42
2021/03/06 08:44:21;;;;;;;;;;;;;;;;;;20793194;28;1202;-42
2021/03/06 08:54:42;;;;;;;;;;;;;;;;;;20799241;28;1906;-43
2021/03/06 09:05:26;;;;;;;;;;;;;;;;;;20821146;28;1329;-43
2021/03/06 09:16:01;;;;;;;;;;;;;;;;;;20972294;28;1906;-42
2021/03/06 09:26:38;;;;;;;;;;;;;;;;;;20969874;28;1272;-43
2021/03/06 09:37:03;;;;;;;;;;;;;;;;;;20908063;28;1999;-42
2021/03/06 09:47:23;;;;;;;;;;;;;;;;;;20857291;28;1087;-43
2021/03/06 09:57:44;;;;;;;;;;;;;;;;;;20869290;28;1962;-43
2021/03/06 10:08:05;;;;;;;;;;;;;;;;;;20927259;28;1296;-42
2021/03/06 10:18:27;;;;;;;;;;;;;;;;;;20951648;28;1979;-42
2021/03/06 10:28:48;;;;;;;;;;;;;;;;;;20964192;28;1353;-43
2021/03/06 10:39:24;;;;;;;;;;;;;;;;;;20963985;28;1051;-42
2021/03/06 10:49:45;;;;;;;;;;;;;;;;;;20962789;28;1910;-42
2021/03/06 11:00:27;;;;;;;;;;;;;;;;;;20920195;28;1307;-41
2021/03/06 11:10:48;;;;;;;;;;;;;;;;;;20895347;28;2012;-44
2021/03/06 11:21:11;;;;;;;;;;;;;;;;;;20850077;28;1056;-44
2021/03/06 11:31:32;;;;;;;;;;;;;;;;;;20878094;28;1973;-43
2021/03/06 11:42:08;;;;;;;;;;;;;;;;;;20863349;28;1122;-42
2021/03/06 11:52:42;;;;;;;;;;;;;;;;;;20878740;28;1984;-43
2021/03/06 12:03:17;;;;;;;;;;;;;;;;;;20878521;28;1280;-42
2021/03/06 12:13:38;;;;;;;;;;;;;;;;;;20937209;28;1918;-43
2021/03/06 12:23:59;;;;;;;;;;;;;;;;;;20944259;28;1140;-42
2021/03/06 12:34:34;;;;;;;;;;;;;;;;;;20970379;28;1897;-44
2021/03/06 12:45:10;;;;;;;;;;;;;;;;;;20958540;28;1198;-43
2021/03/06 12:55:45;;;;;;;;;;;;;;;;;;20972322;28;1902;-42
2021/03/06 13:06:20;;;;;;;;;;;;;;;;;;20958099;28;1332;-42
2021/03/06 13:16:55;;;;;;;;;;;;;;;;;;20889691;28;1971;-41
2021/03/06 13:27:30;;;;;;;;;;;;;;;;;;20875083;28;1303;-42
2021/03/06 13:37:50;;;;;;;;;;;;;;;;;;20874279;28;1890;-42
2021/03/06 13:48:25;;;;;;;;;;;;;;;;;;20874332;28;1104;-42
2021/03/06 13:58:54;;;;;;;;;;;;;;;;;;20884574;28;1985;-42
2021/03/06 14:09:15;;;;;;;;;;;;;;;;;;20924626;28;2061;-42
2021/03/06 14:19:35;;;;;;;;;;;;;;;;;;20965307;28;1914;-42
2021/03/06 14:29:56;;;;;;;;;;;;;;;;;;20966988;28;1894;-41
2021/03/06 14:40:31;;;;;;;;;;;;;;;;;;20937685;28;1299;-43
2021/03/06 14:50:52;;;;;;;;;;;;;;;;;;20948862;28;1992;-41
2021/03/06 15:01:13;;;;;;;;;;;;;;;;;;20961573;28;1435;-42
2021/03/06 15:11:34;;;;;;;;;;;;;;;;;;20907771;28;1977;-41
2021/03/06 15:21:54;;;;;;;;;;;;;;;;;;20885026;28;1049;-41
2021/03/06 15:32:14;;;;;;;;;;;;;;;;;;20880195;28;1961;-43
2021/03/06 15:42:49;;;;;;;;;;;;;;;;;;20863587;28;1154;-41
2021/03/06 15:53:10;;;;;;;;;;;;;;;;;;20862448;28;1894;-42
2021/03/06 16:03:30;;;;;;;;;;;;;;;;;;20846345;28;1072;-42
2021/03/06 16:13:51;;;;;;;;;;;;;;;;;;20948285;28;1983;-42
2021/03/06 16:24:25;;;;;;;;;;;;;;;;;;20898653;28;1200;-42
2021/03/06 16:34:48;;;;;;;;;;;;;;;;;;20892145;28;1902;-40
2021/03/06 16:45:10;;;;;;;;;;;;;;;;;;20559264;28;10000347;-43
2021/03/06 16:55:45;;;;;;;;;;;;;;;;;;20932295;28;1906;-43
2021/03/06 17:06:06;;;;;;;;;;;;;;;;;;20915074;28;11570;-44
2021/03/06 17:16:41;;;;;;;;;;;;;;;;;;20883531;28;1910;-43
2021/03/06 17:27:17;;;;;;;;;;;;;;;;;;20885456;28;1223;-43
2021/03/06 17:37:38;;;;;;;;;;;;;;;;;;20848658;28;2374;-43
2021/03/06 17:47:59;;;;;;;;;;;;;;;;;;20799475;28;1060;-42
2021/03/06 17:58:33;;;;;;;;;;;;;;;;;;20785855;28;3173;-42
2021/03/06 18:08:54;;;;;;;;;;;;;;;;;;20881940;28;1501;-42
2021/03/06 18:19:30;;;;;;;;;;;;;;;;;;20865314;28;1902;-43
2021/03/06 18:29:51;;;;;;;;;;;;;;;;;;20875864;28;1196;-41
2021/03/06 18:40:26;;;;;;;;;;;;;;;;;;20844744;28;2488;-43
2021/03/06 18:50:46;;;;;;;;;;;;;;;;;;20874108;28;1987;-44
2021/03/06 19:01:07;;;;;;;;;;;;;;;;;;20873680;28;1225;-42
2021/03/06 19:11:28;;;;;;;;;;;;;;;;;;20916298;28;1898;-43
2021/03/06 19:21:49;;;;;;;;;;;;;;;;;;20937688;28;1056;-43
2021/03/06 19:32:24;;;;;;;;;;;;;;;;;;20966019;28;1967;-43
2021/03/06 19:42:44;;;;;;;;;;;;;;;;;;20967938;28;1074;-43
2021/03/06 19:53:05;;;;;;;;;;;;;;;;;;20888954;28;1894;-43
2021/03/06 20:03:25;;;;;;;;;;;;;;;;;;20881062;28;1080;-43
2021/03/06 20:13:47;;;;;;;;;;;;;;;;;;20858942;28;1890;-42
2021/03/06 20:24:21;;;;;;;;;;;;;;;;;;20880938;28;1036;-43
2021/03/06 20:34:44;;;;;;;;;;;;;;;;;;20875119;28;1977;-44
2021/03/06 20:45:19;;;;;;;;;;;;;;;;;;20853891;28;76989;-41
2021/03/06 20:55:39;;;;;;;;;;;;;;;;;;20881092;28;9808;-34
2021/03/06 21:06:00;;;;;;;;;;;;;;;;;;20896165;28;9851;-32
2021/03/06 21:16:21;;;;;;;;;;;;;;;;;;20903160;28;75665;-40
2021/03/06 21:26:56;;;;;;;;;;;;;;;;;;20949084;28;1137;-37
2021/03/06 21:37:30;;;;;;;;;;;;;;;;;;20971693;28;2165;-37
2021/03/06 21:47:51;;;;;;;;;;;;;;;;;;20957010;28;1118;-39
2021/03/06 21:58:12;;;;;;;;;;;;;;;;;;20972914;28;1991;-34
2021/03/06 22:08:47;;;;;;;;;;;;;;;;;;20929810;28;1312;-38
2021/03/06 22:19:08;;;;;;;;;;;;;;;;;;20862555;28;9898;-42
2021/03/06 22:29:42;;;;;;;;;;;;;;;;;;20885939;28;1386;-44
2021/03/06 22:40:03;;;;;;;;;;;;;;;;;;20888677;28;1906;-43
2021/03/06 22:50:38;;;;;;;;;;;;;;;;;;20887238;28;1903;-42
2021/03/06 23:01:13;;;;;;;;;;;;;;;;;;20884975;28;1204;-45
2021/03/06 23:11:34;;;;;;;;;;;;;;;;;;20928172;28;1984;-43
2021/03/06 23:21:55;;;;;;;;;;;;;;;;;;20980639;28;1083;-43
2021/03/06 23:32:16;;;;;;;;;;;;;;;;;;20979817;28;1973;-41
2021/03/06 23:42:37;;;;;;;;;;;;;;;;;;20979635;28;1083;-42
2021/03/06 23:52:57;;;;;;;;;;;;;;;;;;20966791;28;1894;-45
